sensor_id;sensor_type;location;lat;lon;timestamp;P1;durP1;ratioP1;P2;durP2;ratioP2
53072;SDS011;38955;48.916;2.336;2024-03-06T00:00:31;12.80;;;0.40;;
53072;SDS011;38955;48.916;2.336;2024-03-06T00:02:34;0.35;;;0.35;;
53072;SDS011;38955;48.916;2.336;2024-03-06T00:04:37;1.05;;;0.88;;
53072;SDS011;38955;48.916;2.336;2024-03-06T00:06:40;0.88;;;0.60;;
53072;SDS011;38955;48.916;2.336;2024-03-06T00:08:42;0.52;;;0.50;;
53072;SDS011;38955;48.916;2.336;2024-03-06T00:10:44;1.13;;;0.30;;
53072;SDS011;38955;48.916;2.336;2024-03-06T00:12:46;0.70;;;0.70;;
53072;SDS011;38955;48.916;2.336;2024-03-06T00:14:48;1.33;;;0.50;;
53072;SDS011;38955;48.916;2.336;2024-03-06T00:16:52;0.43;;;0.43;;
53072;SDS011;38955;48.916;2.336;2024-03-06T00:18:58;2.00;;;1.23;;
53072;SDS011;38955;48.916;2.336;2024-03-06T00:21:00;0.85;;;0.30;;
53072;SDS011;38955;48.916;2.336;2024-03-06T00:23:02;1.08;;;0.50;;
53072;SDS011;38955;48.916;2.336;2024-03-06T00:25:04;0.75;;;0.55;;
53072;SDS011;38955;48.916;2.336;2024-03-06T00:27:07;2.78;;;1.63;;
53072;SDS011;38955;48.916;2.336;2024-03-06T00:29:09;0.73;;;0.40;;
53072;SDS011;38955;48.916;2.336;2024-03-06T00:31:11;0.50;;;0.50;;
53072;SDS011;38955;48.916;2.336;2024-03-06T00:33:15;0.45;;;0.40;;
53072;SDS011;38955;48.916;2.336;2024-03-06T00:35:17;0.40;;;0.40;;
53072;SDS011;38955;48.916;2.336;2024-03-06T00:37:20;0.68;;;0.68;;
53072;SDS011;38955;48.916;2.336;2024-03-06T00:39:22;0.30;;;0.30;;
53072;SDS011;38955;48.916;2.336;2024-03-06T00:41:25;2.33;;;1.65;;
53072;SDS011;38955;48.916;2.336;2024-03-06T00:43:28;0.70;;;0.30;;
53072;SDS011;38955;48.916;2.336;2024-03-06T00:45:30;0.65;;;0.65;;
53072;SDS011;38955;48.916;2.336;2024-03-06T00:47:33;0.55;;;0.32;;
53072;SDS011;38955;48.916;2.336;2024-03-06T00:49:37;0.65;;;0.55;;
53072;SDS011;38955;48.916;2.336;2024-03-06T00:51:40;1.08;;;0.30;;
53072;SDS011;38955;48.916;2.336;2024-03-06T00:53:49;2.15;;;1.25;;
53072;SDS011;38955;48.916;2.336;2024-03-06T00:55:51;0.65;;;0.30;;
53072;SDS011;38955;48.916;2.336;2024-03-06T00:57:53;0.60;;;0.50;;
53072;SDS011;38955;48.916;2.336;2024-03-06T00:59:58;1.60;;;0.50;;
53072;SDS011;38955;48.916;2.336;2024-03-06T01:02:00;1.85;;;0.47;;
53072;SDS011;38955;48.916;2.336;2024-03-06T01:04:02;1.10;;;0.45;;
53072;SDS011;38955;48.916;2.336;2024-03-06T01:06:06;0.55;;;0.50;;
53072;SDS011;38955;48.916;2.336;2024-03-06T01:08:08;0.55;;;0.50;;
53072;SDS011;38955;48.916;2.336;2024-03-06T01:10:10;0.65;;;0.30;;
53072;SDS011;38955;48.916;2.336;2024-03-06T01:12:12;0.40;;;0.40;;
53072;SDS011;38955;48.916;2.336;2024-03-06T01:14:14;1.40;;;0.95;;
53072;SDS011;38955;48.916;2.336;2024-03-06T01:16:17;1.00;;;0.47;;
53072;SDS011;38955;48.916;2.336;2024-03-06T01:18:20;1.52;;;1.02;;
53072;SDS011;38955;48.916;2.336;2024-03-06T01:20:23;0.32;;;0.25;;
53072;SDS011;38955;48.916;2.336;2024-03-06T01:22:28;2.13;;;0.82;;
53072;SDS011;38955;48.916;2.336;2024-03-06T01:24:31;1.10;;;0.52;;
53072;SDS011;38955;48.916;2.336;2024-03-06T01:26:33;1.38;;;0.82;;
53072;SDS011;38955;48.916;2.336;2024-03-06T01:28:35;1.17;;;1.00;;
53072;SDS011;38955;48.916;2.336;2024-03-06T01:30:38;0.82;;;0.40;;
53072;SDS011;38955;48.916;2.336;2024-03-06T01:32:40;0.65;;;0.63;;
53072;SDS011;38955;48.916;2.336;2024-03-06T01:34:42;0.95;;;0.65;;
53072;SDS011;38955;48.916;2.336;2024-03-06T01:36:44;0.32;;;0.32;;
53072;SDS011;38955;48.916;2.336;2024-03-06T01:38:48;1.52;;;0.68;;
53072;SDS011;38955;48.916;2.336;2024-03-06T01:40:50;0.93;;;0.63;;
53072;SDS011;38955;48.916;2.336;2024-03-06T01:42:52;1.42;;;0.88;;
53072;SDS011;38955;48.916;2.336;2024-03-06T01:44:54;1.15;;;0.85;;
53072;SDS011;38955;48.916;2.336;2024-03-06T01:46:56;0.75;;;0.50;;
53072;SDS011;38955;48.916;2.336;2024-03-06T01:48:58;0.60;;;0.60;;
53072;SDS011;38955;48.916;2.336;2024-03-06T01:51:05;0.85;;;0.75;;
53072;SDS011;38955;48.916;2.336;2024-03-06T01:53:07;0.95;;;0.88;;
53072;SDS011;38955;48.916;2.336;2024-03-06T01:55:12;0.68;;;0.57;;
53072;SDS011;38955;48.916;2.336;2024-03-06T01:57:15;4.03;;;0.65;;
53072;SDS011;38955;48.916;2.336;2024-03-06T01:59:21;1.10;;;1.00;;
53072;SDS011;38955;48.916;2.336;2024-03-06T02:01:37;0.98;;;0.95;;
53072;SDS011;38955;48.916;2.336;2024-03-06T02:03:39;1.13;;;0.80;;
53072;SDS011;38955;48.916;2.336;2024-03-06T02:05:42;1.95;;;0.63;;
53072;SDS011;38955;48.916;2.336;2024-03-06T02:07:44;1.42;;;0.80;;
53072;SDS011;38955;48.916;2.336;2024-03-06T02:09:46;0.70;;;0.57;;
53072;SDS011;38955;48.916;2.336;2024-03-06T02:11:51;1.45;;;0.70;;
53072;SDS011;38955;48.916;2.336;2024-03-06T02:13:56;1.48;;;0.85;;
53072;SDS011;38955;48.916;2.336;2024-03-06T02:15:59;1.45;;;1.15;;
53072;SDS011;38955;48.916;2.336;2024-03-06T02:18:04;1.67;;;1.10;;
53072;SDS011;38955;48.916;2.336;2024-03-06T02:20:07;2.00;;;1.15;;
53072;SDS011;38955;48.916;2.336;2024-03-06T02:22:15;1.25;;;0.93;;
53072;SDS011;38955;48.916;2.336;2024-03-06T02:24:17;1.00;;;0.70;;
53072;SDS011;38955;48.916;2.336;2024-03-06T02:26:19;1.98;;;1.25;;
53072;SDS011;38955;48.916;2.336;2024-03-06T02:28:22;1.40;;;0.70;;
53072;SDS011;38955;48.916;2.336;2024-03-06T02:30:24;1.73;;;0.90;;
53072;SDS011;38955;48.916;2.336;2024-03-06T02:32:27;2.38;;;1.23;;
53072;SDS011;38955;48.916;2.336;2024-03-06T02:34:29;1.88;;;0.70;;
53072;SDS011;38955;48.916;2.336;2024-03-06T02:38:37;1.20;;;0.73;;
53072;SDS011;38955;48.916;2.336;2024-03-06T02:40:39;1.08;;;0.60;;
53072;SDS011;38955;48.916;2.336;2024-03-06T02:44:46;2.38;;;1.75;;
53072;SDS011;38955;48.916;2.336;2024-03-06T02:46:48;1.73;;;1.30;;
53072;SDS011;38955;48.916;2.336;2024-03-06T02:48:50;1.48;;;1.00;;
53072;SDS011;38955;48.916;2.336;2024-03-06T02:50:52;1.13;;;0.80;;
53072;SDS011;38955;48.916;2.336;2024-03-06T02:52:55;2.50;;;1.08;;
53072;SDS011;38955;48.916;2.336;2024-03-06T02:55:00;0.85;;;0.60;;
53072;SDS011;38955;48.916;2.336;2024-03-06T02:57:02;1.88;;;1.17;;
53072;SDS011;38955;48.916;2.336;2024-03-06T02:59:04;1.58;;;0.70;;
53072;SDS011;38955;48.916;2.336;2024-03-06T03:01:06;3.25;;;1.50;;
53072;SDS011;38955;48.916;2.336;2024-03-06T03:03:10;0.45;;;0.45;;
53072;SDS011;38955;48.916;2.336;2024-03-06T03:05:13;1.13;;;1.00;;
53072;SDS011;38955;48.916;2.336;2024-03-06T03:07:15;3.15;;;1.00;;
53072;SDS011;38955;48.916;2.336;2024-03-06T03:09:17;1.70;;;1.08;;
53072;SDS011;38955;48.916;2.336;2024-03-06T03:11:21;1.05;;;0.80;;
53072;SDS011;38955;48.916;2.336;2024-03-06T03:13:23;3.30;;;1.00;;
53072;SDS011;38955;48.916;2.336;2024-03-06T03:15:25;1.75;;;0.90;;
53072;SDS011;38955;48.916;2.336;2024-03-06T03:17:29;3.50;;;1.48;;
53072;SDS011;38955;48.916;2.336;2024-03-06T03:19:31;2.33;;;1.35;;
53072;SDS011;38955;48.916;2.336;2024-03-06T03:21:33;2.78;;;1.20;;
53072;SDS011;38955;48.916;2.336;2024-03-06T03:23:35;2.20;;;1.13;;
53072;SDS011;38955;48.916;2.336;2024-03-06T03:25:37;2.97;;;1.58;;
53072;SDS011;38955;48.916;2.336;2024-03-06T03:27:41;5.75;;;2.55;;
53072;SDS011;38955;48.916;2.336;2024-03-06T03:29:45;2.25;;;1.67;;
53072;SDS011;38955;48.916;2.336;2024-03-06T03:31:47;2.13;;;1.92;;
53072;SDS011;38955;48.916;2.336;2024-03-06T03:33:49;3.10;;;1.70;;
53072;SDS011;38955;48.916;2.336;2024-03-06T03:35:51;3.33;;;2.55;;
53072;SDS011;38955;48.916;2.336;2024-03-06T03:37:53;2.22;;;1.90;;
53072;SDS011;38955;48.916;2.336;2024-03-06T03:39:56;4.32;;;3.20;;
53072;SDS011;38955;48.916;2.336;2024-03-06T03:42:00;4.57;;;2.65;;
53072;SDS011;38955;48.916;2.336;2024-03-06T03:44:04;3.30;;;1.98;;
53072;SDS011;38955;48.916;2.336;2024-03-06T03:46:06;5.15;;;2.03;;
53072;SDS011;38955;48.916;2.336;2024-03-06T03:48:08;3.53;;;2.72;;
53072;SDS011;38955;48.916;2.336;2024-03-06T03:50:10;5.80;;;1.98;;
53072;SDS011;38955;48.916;2.336;2024-03-06T03:52:12;3.60;;;1.92;;
53072;SDS011;38955;48.916;2.336;2024-03-06T03:54:15;3.83;;;2.17;;
53072;SDS011;38955;48.916;2.336;2024-03-06T03:56:17;6.80;;;3.25;;
53072;SDS011;38955;48.916;2.336;2024-03-06T03:58:19;4.38;;;3.00;;
53072;SDS011;38955;48.916;2.336;2024-03-06T04:00:22;4.00;;;1.88;;
53072;SDS011;38955;48.916;2.336;2024-03-06T04:02:24;4.85;;;2.92;;
53072;SDS011;38955;48.916;2.336;2024-03-06T04:04:26;4.13;;;2.22;;
53072;SDS011;38955;48.916;2.336;2024-03-06T04:06:28;3.30;;;2.97;;
53072;SDS011;38955;48.916;2.336;2024-03-06T04:08:30;3.85;;;3.33;;
53072;SDS011;38955;48.916;2.336;2024-03-06T04:10:32;3.78;;;2.30;;
53072;SDS011;38955;48.916;2.336;2024-03-06T04:12:35;6.75;;;3.00;;
53072;SDS011;38955;48.916;2.336;2024-03-06T04:14:37;7.25;;;2.28;;
53072;SDS011;38955;48.916;2.336;2024-03-06T04:16:40;4.88;;;3.38;;
53072;SDS011;38955;48.916;2.336;2024-03-06T04:18:42;3.35;;;1.65;;
53072;SDS011;38955;48.916;2.336;2024-03-06T04:20:46;4.03;;;3.30;;
53072;SDS011;38955;48.916;2.336;2024-03-06T04:22:48;3.08;;;2.75;;
53072;SDS011;38955;48.916;2.336;2024-03-06T04:24:52;5.07;;;2.08;;
53072;SDS011;38955;48.916;2.336;2024-03-06T04:26:54;2.90;;;1.98;;
53072;SDS011;38955;48.916;2.336;2024-03-06T04:28:57;3.33;;;2.38;;
53072;SDS011;38955;48.916;2.336;2024-03-06T04:30:59;4.95;;;3.15;;
53072;SDS011;38955;48.916;2.336;2024-03-06T04:33:03;3.45;;;2.70;;
53072;SDS011;38955;48.916;2.336;2024-03-06T04:35:06;2.55;;;1.58;;
53072;SDS011;38955;48.916;2.336;2024-03-06T04:37:11;2.17;;;1.90;;
53072;SDS011;38955;48.916;2.336;2024-03-06T04:39:13;3.38;;;1.80;;
53072;SDS011;38955;48.916;2.336;2024-03-06T04:41:17;3.17;;;1.42;;
53072;SDS011;38955;48.916;2.336;2024-03-06T04:43:20;7.25;;;2.65;;
53072;SDS011;38955;48.916;2.336;2024-03-06T04:45:22;2.42;;;2.20;;
53072;SDS011;38955;48.916;2.336;2024-03-06T04:47:24;5.43;;;3.28;;
53072;SDS011;38955;48.916;2.336;2024-03-06T04:49:33;5.68;;;2.70;;
53072;SDS011;38955;48.916;2.336;2024-03-06T04:51:36;2.17;;;1.55;;
53072;SDS011;38955;48.916;2.336;2024-03-06T04:53:37;3.22;;;1.73;;
53072;SDS011;38955;48.916;2.336;2024-03-06T04:55:39;2.05;;;1.23;;
53072;SDS011;38955;48.916;2.336;2024-03-06T04:57:43;12.50;;;1.95;;
53072;SDS011;38955;48.916;2.336;2024-03-06T04:59:46;2.40;;;1.73;;
53072;SDS011;38955;48.916;2.336;2024-03-06T05:01:48;2.97;;;2.25;;
53072;SDS011;38955;48.916;2.336;2024-03-06T05:03:50;3.10;;;1.63;;
53072;SDS011;38955;48.916;2.336;2024-03-06T05:06:11;6.03;;;2.08;;
53072;SDS011;38955;48.916;2.336;2024-03-06T05:08:31;1.35;;;1.10;;
53072;SDS011;38955;48.916;2.336;2024-03-06T05:10:51;2.22;;;1.83;;
53072;SDS011;38955;48.916;2.336;2024-03-06T05:13:11;5.80;;;2.75;;
53072;SDS011;38955;48.916;2.336;2024-03-06T05:15:30;2.50;;;1.70;;
53072;SDS011;38955;48.916;2.336;2024-03-06T05:17:50;3.95;;;2.35;;
53072;SDS011;38955;48.916;2.336;2024-03-06T05:20:10;2.05;;;1.48;;
53072;SDS011;38955;48.916;2.336;2024-03-06T05:22:30;3.33;;;1.98;;
53072;SDS011;38955;48.916;2.336;2024-03-06T05:24:50;5.25;;;2.15;;
53072;SDS011;38955;48.916;2.336;2024-03-06T05:27:10;3.50;;;2.03;;
53072;SDS011;38955;48.916;2.336;2024-03-06T05:29:35;4.20;;;2.33;;
53072;SDS011;38955;48.916;2.336;2024-03-06T05:31:55;4.55;;;2.95;;
53072;SDS011;38955;48.916;2.336;2024-03-06T05:34:14;3.15;;;1.90;;
53072;SDS011;38955;48.916;2.336;2024-03-06T05:36:34;3.05;;;1.88;;
53072;SDS011;38955;48.916;2.336;2024-03-06T05:38:54;1.88;;;1.60;;
53072;SDS011;38955;48.916;2.336;2024-03-06T05:41:14;8.13;;;4.60;;
53072;SDS011;38955;48.916;2.336;2024-03-06T05:43:34;5.85;;;1.92;;
53072;SDS011;38955;48.916;2.336;2024-03-06T05:45:53;3.08;;;2.15;;
53072;SDS011;38955;48.916;2.336;2024-03-06T05:48:13;2.83;;;1.65;;
53072;SDS011;38955;48.916;2.336;2024-03-06T05:50:33;4.60;;;2.58;;
53072;SDS011;38955;48.916;2.336;2024-03-06T05:52:53;2.90;;;1.55;;
53072;SDS011;38955;48.916;2.336;2024-03-06T05:55:13;4.90;;;2.35;;
53072;SDS011;38955;48.916;2.336;2024-03-06T05:57:33;3.78;;;1.83;;
53072;SDS011;38955;48.916;2.336;2024-03-06T05:59:53;3.78;;;2.90;;
53072;SDS011;38955;48.916;2.336;2024-03-06T06:01:55;5.07;;;2.60;;
53072;SDS011;38955;48.916;2.336;2024-03-06T06:03:57;4.32;;;2.38;;
53072;SDS011;38955;48.916;2.336;2024-03-06T06:06:04;6.13;;;1.80;;
53072;SDS011;38955;48.916;2.336;2024-03-06T06:08:06;2.90;;;1.77;;
53072;SDS011;38955;48.916;2.336;2024-03-06T06:10:09;3.17;;;2.05;;
53072;SDS011;38955;48.916;2.336;2024-03-06T06:12:12;3.08;;;1.65;;
53072;SDS011;38955;48.916;2.336;2024-03-06T06:14:14;2.17;;;1.27;;
53072;SDS011;38955;48.916;2.336;2024-03-06T06:16:16;5.22;;;2.00;;
53072;SDS011;38955;48.916;2.336;2024-03-06T06:18:18;2.53;;;1.70;;
53072;SDS011;38955;48.916;2.336;2024-03-06T06:20:21;3.30;;;1.65;;
53072;SDS011;38955;48.916;2.336;2024-03-06T06:22:23;2.20;;;1.25;;
53072;SDS011;38955;48.916;2.336;2024-03-06T06:24:25;3.20;;;1.40;;
53072;SDS011;38955;48.916;2.336;2024-03-06T06:26:27;1.23;;;0.65;;
53072;SDS011;38955;48.916;2.336;2024-03-06T06:28:31;1.63;;;0.90;;
53072;SDS011;38955;48.916;2.336;2024-03-06T06:30:33;1.77;;;1.13;;
53072;SDS011;38955;48.916;2.336;2024-03-06T06:32:35;2.72;;;1.63;;
53072;SDS011;38955;48.916;2.336;2024-03-06T06:34:37;2.20;;;1.80;;
53072;SDS011;38955;48.916;2.336;2024-03-06T06:36:44;2.25;;;1.17;;
53072;SDS011;38955;48.916;2.336;2024-03-06T06:38:47;1.88;;;1.10;;
53072;SDS011;38955;48.916;2.336;2024-03-06T06:40:49;3.83;;;1.52;;
53072;SDS011;38955;48.916;2.336;2024-03-06T06:42:52;1.15;;;0.93;;
53072;SDS011;38955;48.916;2.336;2024-03-06T06:44:55;4.20;;;2.63;;
53072;SDS011;38955;48.916;2.336;2024-03-06T06:46:57;3.90;;;1.83;;
53072;SDS011;38955;48.916;2.336;2024-03-06T06:49:00;1.60;;;1.02;;
53072;SDS011;38955;48.916;2.336;2024-03-06T06:51:02;3.30;;;1.30;;
53072;SDS011;38955;48.916;2.336;2024-03-06T06:53:04;3.22;;;1.70;;
53072;SDS011;38955;48.916;2.336;2024-03-06T06:55:06;3.05;;;2.17;;
53072;SDS011;38955;48.916;2.336;2024-03-06T06:57:13;11.07;;;3.22;;
53072;SDS011;38955;48.916;2.336;2024-03-06T06:59:15;3.45;;;1.58;;
53072;SDS011;38955;48.916;2.336;2024-03-06T07:01:19;7.00;;;2.90;;
53072;SDS011;38955;48.916;2.336;2024-03-06T07:03:21;2.33;;;1.40;;
53072;SDS011;38955;48.916;2.336;2024-03-06T07:05:24;2.08;;;1.70;;
53072;SDS011;38955;48.916;2.336;2024-03-06T07:07:27;4.88;;;1.85;;
53072;SDS011;38955;48.916;2.336;2024-03-06T07:09:29;4.95;;;2.40;;
53072;SDS011;38955;48.916;2.336;2024-03-06T07:11:32;3.67;;;1.30;;
53072;SDS011;38955;48.916;2.336;2024-03-06T07:13:34;4.13;;;1.73;;
53072;SDS011;38955;48.916;2.336;2024-03-06T07:15:36;4.18;;;1.92;;
53072;SDS011;38955;48.916;2.336;2024-03-06T07:17:40;3.80;;;2.65;;
53072;SDS011;38955;48.916;2.336;2024-03-06T07:19:43;3.60;;;2.05;;
53072;SDS011;38955;48.916;2.336;2024-03-06T07:21:45;10.07;;;2.10;;
53072;SDS011;38955;48.916;2.336;2024-03-06T07:23:47;2.47;;;1.80;;
53072;SDS011;38955;48.916;2.336;2024-03-06T07:25:49;3.28;;;1.92;;
53072;SDS011;38955;48.916;2.336;2024-03-06T07:27:52;3.92;;;1.52;;
53072;SDS011;38955;48.916;2.336;2024-03-06T07:29:54;3.38;;;2.35;;
53072;SDS011;38955;48.916;2.336;2024-03-06T07:31:57;1.55;;;1.15;;
53072;SDS011;38955;48.916;2.336;2024-03-06T07:34:00;4.00;;;2.17;;
53072;SDS011;38955;48.916;2.336;2024-03-06T07:36:02;4.22;;;1.77;;
53072;SDS011;38955;48.916;2.336;2024-03-06T07:38:05;2.13;;;1.45;;
53072;SDS011;38955;48.916;2.336;2024-03-06T07:40:08;2.63;;;1.00;;
53072;SDS011;38955;48.916;2.336;2024-03-06T07:42:11;4.07;;;0.90;;
53072;SDS011;38955;48.916;2.336;2024-03-06T07:44:14;2.05;;;1.52;;
53072;SDS011;38955;48.916;2.336;2024-03-06T07:46:16;2.38;;;0.80;;
53072;SDS011;38955;48.916;2.336;2024-03-06T07:48:19;1.00;;;0.73;;
53072;SDS011;38955;48.916;2.336;2024-03-06T07:50:23;5.53;;;1.42;;
53072;SDS011;38955;48.916;2.336;2024-03-06T07:52:27;2.03;;;1.30;;
53072;SDS011;38955;48.916;2.336;2024-03-06T07:54:31;2.30;;;1.52;;
53072;SDS011;38955;48.916;2.336;2024-03-06T07:56:34;5.25;;;1.98;;
53072;SDS011;38955;48.916;2.336;2024-03-06T07:58:36;5.75;;;2.38;;
53072;SDS011;38955;48.916;2.336;2024-03-06T08:00:39;4.55;;;1.67;;
53072;SDS011;38955;48.916;2.336;2024-03-06T08:02:41;4.75;;;2.00;;
53072;SDS011;38955;48.916;2.336;2024-03-06T08:04:44;2.33;;;1.25;;
53072;SDS011;38955;48.916;2.336;2024-03-06T08:06:50;1.70;;;1.08;;
53072;SDS011;38955;48.916;2.336;2024-03-06T08:08:52;1.42;;;1.20;;
53072;SDS011;38955;48.916;2.336;2024-03-06T08:10:54;2.42;;;1.42;;
53072;SDS011;38955;48.916;2.336;2024-03-06T08:12:57;1.63;;;1.25;;
53072;SDS011;38955;48.916;2.336;2024-03-06T08:14:59;4.57;;;2.00;;
53072;SDS011;38955;48.916;2.336;2024-03-06T08:17:01;7.18;;;2.08;;
53072;SDS011;38955;48.916;2.336;2024-03-06T08:19:04;3.70;;;0.90;;
53072;SDS011;38955;48.916;2.336;2024-03-06T08:21:06;1.65;;;1.42;;
53072;SDS011;38955;48.916;2.336;2024-03-06T08:23:10;1.40;;;0.95;;
53072;SDS011;38955;48.916;2.336;2024-03-06T08:25:12;2.90;;;1.52;;
53072;SDS011;38955;48.916;2.336;2024-03-06T08:27:14;2.20;;;1.42;;
53072;SDS011;38955;48.916;2.336;2024-03-06T08:29:16;2.45;;;1.02;;
53072;SDS011;38955;48.916;2.336;2024-03-06T08:31:20;1.77;;;1.20;;
53072;SDS011;38955;48.916;2.336;2024-03-06T08:33:23;2.67;;;1.35;;
53072;SDS011;38955;48.916;2.336;2024-03-06T08:35:26;1.80;;;1.00;;
53072;SDS011;38955;48.916;2.336;2024-03-06T08:37:29;3.63;;;1.75;;
53072;SDS011;38955;48.916;2.336;2024-03-06T08:39:36;4.15;;;1.75;;
53072;SDS011;38955;48.916;2.336;2024-03-06T08:41:39;2.05;;;1.38;;
53072;SDS011;38955;48.916;2.336;2024-03-06T08:43:41;1.88;;;1.13;;
53072;SDS011;38955;48.916;2.336;2024-03-06T08:45:43;2.25;;;1.30;;
53072;SDS011;38955;48.916;2.336;2024-03-06T08:47:46;3.17;;;2.15;;
53072;SDS011;38955;48.916;2.336;2024-03-06T08:49:50;2.83;;;1.00;;
53072;SDS011;38955;48.916;2.336;2024-03-06T08:51:52;3.10;;;1.60;;
53072;SDS011;38955;48.916;2.336;2024-03-06T08:53:54;2.03;;;1.30;;
53072;SDS011;38955;48.916;2.336;2024-03-06T08:55:57;1.85;;;1.00;;
53072;SDS011;38955;48.916;2.336;2024-03-06T08:57:59;2.70;;;2.13;;
53072;SDS011;38955;48.916;2.336;2024-03-06T09:00:03;2.55;;;1.85;;
53072;SDS011;38955;48.916;2.336;2024-03-06T09:02:13;2.90;;;1.27;;
53072;SDS011;38955;48.916;2.336;2024-03-06T09:04:16;1.85;;;1.52;;
53072;SDS011;38955;48.916;2.336;2024-03-06T09:06:18;3.28;;;1.98;;
53072;SDS011;38955;48.916;2.336;2024-03-06T09:08:20;1.38;;;0.90;;
53072;SDS011;38955;48.916;2.336;2024-03-06T09:10:22;1.77;;;0.88;;
53072;SDS011;38955;48.916;2.336;2024-03-06T09:12:26;1.63;;;1.00;;
53072;SDS011;38955;48.916;2.336;2024-03-06T09:14:28;3.13;;;1.02;;
53072;SDS011;38955;48.916;2.336;2024-03-06T09:16:30;0.95;;;0.90;;
53072;SDS011;38955;48.916;2.336;2024-03-06T09:18:32;2.25;;;1.63;;
53072;SDS011;38955;48.916;2.336;2024-03-06T09:20:35;1.73;;;1.08;;
53072;SDS011;38955;48.916;2.336;2024-03-06T09:22:37;1.13;;;0.90;;
53072;SDS011;38955;48.916;2.336;2024-03-06T09:24:39;6.15;;;2.25;;
53072;SDS011;38955;48.916;2.336;2024-03-06T09:26:41;1.50;;;1.10;;
53072;SDS011;38955;48.916;2.336;2024-03-06T09:28:46;2.03;;;1.10;;
53072;SDS011;38955;48.916;2.336;2024-03-06T09:30:49;2.38;;;1.42;;
53072;SDS011;38955;48.916;2.336;2024-03-06T09:32:51;1.00;;;0.75;;
53072;SDS011;38955;48.916;2.336;2024-03-06T09:34:53;3.38;;;1.63;;
53072;SDS011;38955;48.916;2.336;2024-03-06T09:36:55;1.58;;;0.85;;
53072;SDS011;38955;48.916;2.336;2024-03-06T09:38:57;1.48;;;1.30;;
53072;SDS011;38955;48.916;2.336;2024-03-06T09:41:00;2.55;;;1.60;;
53072;SDS011;38955;48.916;2.336;2024-03-06T09:43:02;2.63;;;1.35;;
53072;SDS011;38955;48.916;2.336;2024-03-06T09:45:06;1.80;;;0.80;;
53072;SDS011;38955;48.916;2.336;2024-03-06T09:47:08;1.65;;;0.88;;
53072;SDS011;38955;48.916;2.336;2024-03-06T09:49:16;0.80;;;0.80;;
53072;SDS011;38955;48.916;2.336;2024-03-06T09:51:19;2.22;;;0.95;;
53072;SDS011;38955;48.916;2.336;2024-03-06T09:53:22;0.77;;;0.65;;
53072;SDS011;38955;48.916;2.336;2024-03-06T09:55:25;2.95;;;1.38;;
53072;SDS011;38955;48.916;2.336;2024-03-06T09:57:28;2.70;;;1.48;;
53072;SDS011;38955;48.916;2.336;2024-03-06T09:59:31;2.90;;;1.38;;
53072;SDS011;38955;48.916;2.336;2024-03-06T10:01:34;1.35;;;1.00;;
53072;SDS011;38955;48.916;2.336;2024-03-06T10:03:41;3.08;;;1.55;;
53072;SDS011;38955;48.916;2.336;2024-03-06T10:05:43;2.63;;;1.58;;
53072;SDS011;38955;48.916;2.336;2024-03-06T10:07:46;4.03;;;1.27;;
53072;SDS011;38955;48.916;2.336;2024-03-06T10:09:48;1.65;;;1.10;;
53072;SDS011;38955;48.916;2.336;2024-03-06T10:11:51;1.30;;;1.10;;
53072;SDS011;38955;48.916;2.336;2024-03-06T10:13:59;2.55;;;1.48;;
53072;SDS011;38955;48.916;2.336;2024-03-06T10:16:02;0.95;;;0.80;;
53072;SDS011;38955;48.916;2.336;2024-03-06T10:18:13;2.03;;;1.40;;
53072;SDS011;38955;48.916;2.336;2024-03-06T10:20:17;3.47;;;1.00;;
53072;SDS011;38955;48.916;2.336;2024-03-06T10:22:27;2.58;;;1.25;;
53072;SDS011;38955;48.916;2.336;2024-03-06T10:24:29;4.95;;;1.60;;
53072;SDS011;38955;48.916;2.336;2024-03-06T10:26:31;0.98;;;0.98;;
53072;SDS011;38955;48.916;2.336;2024-03-06T10:28:33;2.58;;;1.30;;
53072;SDS011;38955;48.916;2.336;2024-03-06T10:30:41;3.53;;;0.90;;
53072;SDS011;38955;48.916;2.336;2024-03-06T10:32:48;1.27;;;0.57;;
53072;SDS011;38955;48.916;2.336;2024-03-06T10:34:52;5.68;;;1.20;;
53072;SDS011;38955;48.916;2.336;2024-03-06T10:36:55;1.05;;;0.50;;
53072;SDS011;38955;48.916;2.336;2024-03-06T10:38:58;0.93;;;0.80;;
53072;SDS011;38955;48.916;2.336;2024-03-06T10:41:07;1.50;;;1.02;;
53072;SDS011;38955;48.916;2.336;2024-03-06T10:43:15;3.10;;;0.75;;
53072;SDS011;38955;48.916;2.336;2024-03-06T10:45:18;2.03;;;1.17;;
53072;SDS011;38955;48.916;2.336;2024-03-06T10:47:23;1.50;;;1.40;;
53072;SDS011;38955;48.916;2.336;2024-03-06T10:49:28;3.08;;;0.90;;
53072;SDS011;38955;48.916;2.336;2024-03-06T10:51:33;1.63;;;1.03;;
53072;SDS011;38955;48.916;2.336;2024-03-06T10:53:36;1.50;;;1.27;;
53072;SDS011;38955;48.916;2.336;2024-03-06T10:55:40;2.17;;;1.00;;
53072;SDS011;38955;48.916;2.336;2024-03-06T10:57:46;0.77;;;0.73;;
53072;SDS011;38955;48.916;2.336;2024-03-06T10:59:49;5.45;;;3.05;;
53072;SDS011;38955;48.916;2.336;2024-03-06T11:01:53;2.00;;;1.55;;
53072;SDS011;38955;48.916;2.336;2024-03-06T11:03:57;1.25;;;1.00;;
53072;SDS011;38955;48.916;2.336;2024-03-06T11:06:00;1.13;;;0.80;;
53072;SDS011;38955;48.916;2.336;2024-03-06T11:08:07;3.15;;;1.23;;
53072;SDS011;38955;48.916;2.336;2024-03-06T11:10:10;0.60;;;0.60;;
53072;SDS011;38955;48.916;2.336;2024-03-06T11:12:32;1.13;;;0.90;;
53072;SDS011;38955;48.916;2.336;2024-03-06T11:14:36;2.15;;;0.90;;
53072;SDS011;38955;48.916;2.336;2024-03-06T11:19:05;1.63;;;1.40;;
53072;SDS011;38955;48.916;2.336;2024-03-06T11:21:27;2.67;;;1.35;;
53072;SDS011;38955;48.916;2.336;2024-03-06T11:23:32;1.40;;;1.30;;
53072;SDS011;38955;48.916;2.336;2024-03-06T11:28:02;2.25;;;1.45;;
53072;SDS011;38955;48.916;2.336;2024-03-06T11:30:08;1.35;;;0.90;;
53072;SDS011;38955;48.916;2.336;2024-03-06T11:32:18;2.80;;;1.42;;
53072;SDS011;38955;48.916;2.336;2024-03-06T11:34:23;2.00;;;1.33;;
53072;SDS011;38955;48.916;2.336;2024-03-06T11:36:26;1.50;;;1.40;;
53072;SDS011;38955;48.916;2.336;2024-03-06T11:38:33;1.77;;;1.13;;
53072;SDS011;38955;48.916;2.336;2024-03-06T11:40:43;3.03;;;1.92;;
53072;SDS011;38955;48.916;2.336;2024-03-06T11:42:45;3.30;;;2.05;;
53072;SDS011;38955;48.916;2.336;2024-03-06T11:44:53;1.60;;;0.80;;
53072;SDS011;38955;48.916;2.336;2024-03-06T11:46:59;2.53;;;1.55;;
53072;SDS011;38955;48.916;2.336;2024-03-06T11:49:02;3.42;;;1.35;;
53072;SDS011;38955;48.916;2.336;2024-03-06T11:51:06;1.02;;;0.75;;
53072;SDS011;38955;48.916;2.336;2024-03-06T11:53:10;1.23;;;1.13;;
53072;SDS011;38955;48.916;2.336;2024-03-06T11:55:14;10.02;;;1.42;;
53072;SDS011;38955;48.916;2.336;2024-03-06T11:57:17;1.00;;;0.52;;
53072;SDS011;38955;48.916;2.336;2024-03-06T11:59:24;2.45;;;0.93;;
53072;SDS011;38955;48.916;2.336;2024-03-06T12:01:27;1.63;;;0.90;;
53072;SDS011;38955;48.916;2.336;2024-03-06T12:03:29;2.22;;;1.30;;
53072;SDS011;38955;48.916;2.336;2024-03-06T12:05:32;2.88;;;1.00;;
53072;SDS011;38955;48.916;2.336;2024-03-06T12:07:44;1.13;;;0.70;;
53072;SDS011;38955;48.916;2.336;2024-03-06T12:09:46;3.05;;;0.82;;
53072;SDS011;38955;48.916;2.336;2024-03-06T12:11:49;1.85;;;0.90;;
53072;SDS011;38955;48.916;2.336;2024-03-06T12:13:52;2.00;;;1.08;;
53072;SDS011;38955;48.916;2.336;2024-03-06T12:15:54;4.10;;;1.20;;
53072;SDS011;38955;48.916;2.336;2024-03-06T12:17:56;1.48;;;0.88;;
53072;SDS011;38955;48.916;2.336;2024-03-06T12:19:59;1.08;;;0.70;;
53072;SDS011;38955;48.916;2.336;2024-03-06T12:22:01;0.82;;;0.68;;
53072;SDS011;38955;48.916;2.336;2024-03-06T12:24:06;1.38;;;1.10;;
53072;SDS011;38955;48.916;2.336;2024-03-06T12:26:09;1.50;;;0.82;;
53072;SDS011;38955;48.916;2.336;2024-03-06T12:28:13;1.33;;;0.70;;
53072;SDS011;38955;48.916;2.336;2024-03-06T12:30:16;1.52;;;0.68;;
53072;SDS011;38955;48.916;2.336;2024-03-06T12:32:19;0.90;;;0.60;;
53072;SDS011;38955;48.916;2.336;2024-03-06T12:34:22;0.60;;;0.60;;
53072;SDS011;38955;48.916;2.336;2024-03-06T12:36:24;1.33;;;0.70;;
53072;SDS011;38955;48.916;2.336;2024-03-06T12:38:28;1.08;;;0.73;;